createdAt,value
2023-02-26T00:00:33.570Z,94135.16
2023-02-26T00:03:00.242Z,94136.25
2023-02-26T00:05:27.379Z,94136.97
2023-02-26T00:07:54.119Z,94128.38
2023-02-26T00:10:21.341Z,94137.06
2023-02-26T00:12:48.361Z,94143.63
2023-02-26T00:15:17.784Z,94138.19
2023-02-26T00:18:05.828Z,94145.56
2023-02-26T00:20:33.814Z,94151.22
2023-02-26T00:23:00.850Z,94157.31
2023-02-26T00:25:27.583Z,94153.13
2023-02-26T00:27:54.734Z,94146.97
2023-02-26T00:30:22.005Z,94154.38
2023-02-26T00:32:49.202Z,94163.56
2023-02-26T00:35:16.691Z,94155.69
2023-02-26T00:38:14.767Z,94152.84
2023-02-26T00:40:44.042Z,94153.78
2023-02-26T00:43:22.775Z,94159.03
2023-02-26T00:46:03.665Z,94162.91
2023-02-26T00:48:49.230Z,94165.81
2023-02-26T00:51:28.101Z,94164.69
2023-02-26T00:54:17.214Z,94171.75
2023-02-26T00:56:43.783Z,94169.63
2023-02-26T00:59:10.593Z,94170.94
2023-02-26T01:01:37.244Z,94175.44
2023-02-26T01:04:04.708Z,94171.81
2023-02-26T01:06:34.658Z,94173.13
2023-02-26T01:09:07.913Z,94176.34
2023-02-26T01:11:36.005Z,94174.09
2023-02-26T01:14:04.977Z,94180.75
2023-02-26T01:16:38.397Z,94174.63
2023-02-26T01:19:20.535Z,94176.72
2023-02-26T01:21:55.232Z,94174.47
2023-02-26T01:24:24.203Z,94166.56
2023-02-26T01:26:51.080Z,94180.22
2023-02-26T01:29:18.065Z,94184.00
2023-02-26T01:32:00.507Z,94194.03
2023-02-26T01:34:48.756Z,94186.53
2023-02-26T01:37:41.328Z,94186.47
2023-02-26T01:40:45.016Z,94193.69
2023-02-26T01:43:20.588Z,94187.72
2023-02-26T01:46:05.301Z,94195.56
2023-02-26T01:48:54.336Z,94186.25
2023-02-26T01:51:46.856Z,94200.59
2023-02-26T01:54:15.598Z,94191.53
2023-02-26T01:56:45.200Z,94188.88
2023-02-26T01:59:15.524Z,94189.53
2023-02-26T02:01:42.421Z,94197.09
2023-02-26T02:04:14.504Z,94194.59
2023-02-26T02:06:42.808Z,94193.88
2023-02-26T02:09:10.493Z,94190.88
2023-02-26T02:11:53.101Z,94197.66
2023-02-26T02:14:31.673Z,94192.50
2023-02-26T02:17:33.849Z,94195.19
2023-02-26T02:20:06.491Z,94203.81
2023-02-26T02:22:46.039Z,94202.25
2023-02-26T02:25:28.006Z,94195.59
2023-02-26T02:28:05.669Z,94201.44
2023-02-26T02:30:53.160Z,94194.94
2023-02-26T02:33:23.870Z,94202.72
2023-02-26T02:35:56.276Z,94199.06
2023-02-26T02:38:49.724Z,94208.72
2023-02-26T02:41:22.777Z,94208.09
2023-02-26T02:43:52.595Z,94213.50
2023-02-26T02:46:28.624Z,94212.63
2023-02-26T02:49:05.709Z,94223.41
2023-02-26T02:51:44.471Z,94210.97
2023-02-26T02:54:30.279Z,94223.59
2023-02-26T02:57:04.594Z,94216.22
2023-02-26T02:59:45.189Z,94226.56
2023-02-26T03:02:34.029Z,94231.19
2023-02-26T03:05:00.827Z,94233.88
2023-02-26T03:07:34.025Z,94233.09
2023-02-26T03:10:00.826Z,94240.66
2023-02-26T03:12:32.439Z,94237.31
2023-02-26T03:15:00.716Z,94241.28
2023-02-26T03:17:36.589Z,94243.81
2023-02-26T03:20:08.134Z,94242.63
2023-02-26T03:22:53.291Z,94253.81
2023-02-26T03:25:38.096Z,94256.22
2023-02-26T03:28:25.726Z,94253.00
2023-02-26T03:31:07.785Z,94263.81
2023-02-26T03:33:37.623Z,94259.31
2023-02-26T03:36:20.604Z,94265.53
2023-02-26T03:39:20.487Z,94264.25
2023-02-26T03:41:56.037Z,94266.53
2023-02-26T03:44:30.768Z,94272.56
2023-02-26T03:47:04.599Z,94276.09
2023-02-26T03:49:58.357Z,94274.53
2023-02-26T03:52:28.787Z,94269.50
2023-02-26T03:55:20.574Z,94281.31
2023-02-26T03:57:59.821Z,94286.19
2023-02-26T04:00:32.955Z,94288.31
2023-02-26T04:03:32.580Z,94287.25
2023-02-26T04:05:59.814Z,94291.63
2023-02-26T04:08:27.470Z,94286.03
2023-02-26T04:11:06.693Z,94291.38
2023-02-26T04:13:33.505Z,94296.03
2023-02-26T04:16:01.237Z,94293.97
2023-02-26T04:18:28.826Z,94296.13
2023-02-26T04:20:56.160Z,94290.78
2023-02-26T04:23:23.059Z,94303.63
2023-02-26T04:25:49.880Z,94301.84
2023-02-26T04:28:16.819Z,94294.19
2023-02-26T04:30:43.628Z,94303.63
2023-02-26T04:33:13.850Z,94303.97
2023-02-26T04:35:40.849Z,94302.69
2023-02-26T04:38:08.868Z,94307.09
2023-02-26T04:40:35.822Z,94314.25
2023-02-26T04:43:03.218Z,94315.63
2023-02-26T04:45:34.419Z,94320.28
2023-02-26T04:48:01.279Z,94312.25
2023-02-26T04:50:28.084Z,94317.69
2023-02-26T04:52:54.942Z,94322.00
2023-02-26T04:55:21.975Z,94323.22
2023-02-26T04:57:48.674Z,94321.03
2023-02-26T05:00:16.159Z,94324.44
2023-02-26T05:02:43.048Z,94324.03
2023-02-26T05:05:10.056Z,94329.41
2023-02-26T05:07:37.251Z,94320.59
2023-02-26T05:10:06.209Z,94322.72
2023-02-26T05:12:33.489Z,94329.88
2023-02-26T05:15:00.667Z,94321.59
2023-02-26T05:17:27.474Z,94327.81
2023-02-26T05:19:54.318Z,94322.94
2023-02-26T05:22:21.065Z,94332.75
2023-02-26T05:24:48.195Z,94328.66
2023-02-26T05:27:15.361Z,94329.72
2023-02-26T05:29:45.666Z,94336.69
2023-02-26T05:32:13.991Z,94337.22
2023-02-26T05:34:40.695Z,94340.91
2023-02-26T05:37:07.590Z,94340.72
2023-02-26T05:39:34.249Z,94352.19
2023-02-26T05:42:00.924Z,94351.81
2023-02-26T05:44:27.628Z,94353.66
2023-02-26T05:46:54.337Z,94355.44
2023-02-26T05:49:21.190Z,94351.66
2023-02-26T05:51:48.313Z,94361.13
2023-02-26T05:54:14.933Z,94357.13
2023-02-26T05:56:41.822Z,94364.81
2023-02-26T05:59:08.363Z,94367.09
2023-02-26T06:01:37.096Z,94372.13
2023-02-26T06:04:06.877Z,94372.03
2023-02-26T06:06:33.622Z,94387.38
2023-02-26T06:09:02.372Z,94375.31
2023-02-26T06:11:34.096Z,94383.66
2023-02-26T06:14:01.371Z,94388.16
2023-02-26T06:16:28.617Z,94383.00
2023-02-26T06:18:55.810Z,94382.25
2023-02-26T06:21:22.418Z,94380.78
2023-02-26T06:23:48.982Z,94382.53
2023-02-26T06:26:15.890Z,94378.09
2023-02-26T06:28:42.442Z,94383.13
2023-02-26T06:31:09.211Z,94386.53
2023-02-26T06:33:35.790Z,94401.63
2023-02-26T06:36:03.046Z,94403.47
2023-02-26T06:38:29.711Z,94424.44
2023-02-26T06:40:56.369Z,94427.66
2023-02-26T06:43:23.060Z,94445.09
2023-02-26T06:45:49.735Z,94448.88
2023-02-26T06:48:16.731Z,94465.78
2023-02-26T06:50:43.332Z,94465.28
2023-02-26T06:53:10.460Z,94470.72
2023-02-26T06:55:37.086Z,94480.97
2023-02-26T06:58:04.005Z,94471.19
2023-02-26T07:00:30.634Z,94474.94
2023-02-26T07:02:58.235Z,94479.16
2023-02-26T07:05:25.430Z,94485.84
2023-02-26T07:07:52.008Z,94492.28
2023-02-26T07:10:21.546Z,94493.75
2023-02-26T07:12:48.972Z,94500.53
2023-02-26T07:15:15.935Z,94503.81
2023-02-26T07:17:42.875Z,94501.03
2023-02-26T07:20:10.425Z,94493.66
2023-02-26T07:22:38.143Z,94496.38
2023-02-26T07:25:05.860Z,94495.25
2023-02-26T07:27:33.433Z,94496.66
2023-02-26T07:30:00.773Z,94499.00
2023-02-26T07:32:30.461Z,94503.91
2023-02-26T07:34:57.224Z,94505.94
2023-02-26T07:37:24.425Z,94520.03
2023-02-26T07:39:51.824Z,94514.38
2023-02-26T07:42:18.588Z,94522.88
2023-02-26T07:44:45.282Z,94516.00
2023-02-26T07:47:12.009Z,94519.47
2023-02-26T07:49:39.594Z,94513.97
2023-02-26T07:52:08.116Z,94514.84
2023-02-26T07:54:36.156Z,94510.44
2023-02-26T07:57:03.759Z,94506.88
2023-02-26T07:59:30.471Z,94517.38
2023-02-26T08:01:57.294Z,94511.00
2023-02-26T08:04:24.466Z,94516.72
2023-02-26T08:06:51.197Z,94517.03
2023-02-26T08:09:17.824Z,94518.97
2023-02-26T08:11:44.559Z,94525.81
2023-02-26T08:14:11.884Z,94527.59
2023-02-26T08:16:39.160Z,94534.13
2023-02-26T08:19:06.039Z,94532.50
2023-02-26T08:21:32.765Z,94534.03
2023-02-26T08:23:59.634Z,94539.91
2023-02-26T08:26:27.258Z,94540.91
2023-02-26T08:28:54.945Z,94538.91
2023-02-26T08:31:21.722Z,94542.81
2023-02-26T08:33:48.671Z,94540.94
2023-02-26T08:36:15.213Z,94544.94
2023-02-26T08:38:42.133Z,94545.78
2023-02-26T08:41:09.318Z,94562.81
2023-02-26T08:43:37.604Z,94563.38
2023-02-26T08:46:04.665Z,94569.88
2023-02-26T08:48:31.457Z,94568.19
2023-02-26T09:15:32.384Z,94611.63
2023-02-26T09:18:00.025Z,94609.56
2023-02-26T09:20:27.704Z,94610.38
2023-02-26T09:22:54.424Z,94611.25
2023-02-26T09:25:21.007Z,94612.81
2023-02-26T09:27:48.050Z,94622.69
2023-02-26T09:30:15.323Z,94617.59
2023-02-26T09:32:42.241Z,94618.94
2023-02-26T09:35:09.902Z,94620.19
2023-02-26T09:37:36.955Z,94627.16
2023-02-26T09:40:03.982Z,94627.91
2023-02-26T09:42:44.725Z,94626.72
2023-02-26T09:45:26.049Z,94632.06
2023-02-26T09:47:54.218Z,94627.75
2023-02-26T09:50:31.932Z,94630.03
2023-02-26T09:53:20.833Z,94628.63
2023-02-26T09:55:50.753Z,94636.56
2023-02-26T09:58:37.284Z,94632.41
2023-02-26T10:01:13.288Z,94634.78
2023-02-26T10:03:55.037Z,94632.72
2023-02-26T10:06:49.619Z,94637.97
2023-02-26T10:09:22.057Z,94644.13
2023-02-26T10:12:03.095Z,94636.97
2023-02-26T10:14:38.759Z,94628.00
2023-02-26T10:17:19.587Z,94639.97
2023-02-26T10:19:51.601Z,94635.06
2023-02-26T10:22:29.308Z,94633.06
2023-02-26T10:25:03.672Z,94638.97
2023-02-26T10:28:07.124Z,94631.63
2023-02-26T10:30:41.602Z,94631.81
2023-02-26T10:33:43.748Z,94621.59
2023-02-26T10:36:25.540Z,94616.72
2023-02-26T10:39:01.001Z,94618.44
2023-02-26T10:41:31.376Z,94624.19
2023-02-26T10:44:09.235Z,94620.25
2023-02-26T10:46:56.660Z,94622.03
2023-02-26T10:49:29.255Z,94607.66
2023-02-26T10:51:57.686Z,94607.38
2023-02-26T10:54:39.558Z,94598.28
2023-02-26T10:57:17.034Z,94599.34
2023-02-26T10:59:43.694Z,94595.97
2023-02-26T11:02:33.714Z,94598.41
2023-02-26T11:05:07.510Z,94597.31
2023-02-26T11:07:37.988Z,94600.81
2023-02-26T11:10:05.089Z,94591.75
2023-02-26T11:12:32.626Z,94592.63
2023-02-26T11:15:02.320Z,94603.69
2023-02-26T11:17:32.372Z,94605.59
2023-02-26T11:20:05.419Z,94619.22
2023-02-26T11:22:37.209Z,94627.41
2023-02-26T11:25:05.176Z,94634.75
2023-02-26T11:27:36.983Z,94638.31
2023-02-26T11:30:18.433Z,94641.09
2023-02-26T11:32:50.123Z,94640.44
2023-02-26T11:35:19.104Z,94642.31
2023-02-26T11:38:00.110Z,94651.53
2023-02-26T11:40:41.683Z,94648.28
2023-02-26T11:43:14.947Z,94650.69
2023-02-26T11:45:45.828Z,94653.53
2023-02-26T11:48:28.383Z,94648.06
2023-02-26T11:51:00.006Z,94655.94
2023-02-26T11:53:34.897Z,94659.19
2023-02-26T11:56:13.598Z,94649.41
2023-02-26T11:58:45.300Z,94650.19
2023-02-26T12:01:13.712Z,94645.59
2023-02-26T12:03:46.174Z,94647.53
2023-02-26T12:06:21.257Z,94656.31
2023-02-26T12:08:48.287Z,94657.41
2023-02-26T12:11:36.921Z,94655.59
2023-02-26T12:14:12.858Z,94656.59
2023-02-26T12:16:42.110Z,94658.34
2023-02-26T12:19:17.965Z,94653.16
2023-02-26T12:22:11.014Z,94656.22
2023-02-26T12:24:47.792Z,94646.31
2023-02-26T12:27:44.904Z,94649.16
2023-02-26T12:30:45.614Z,94646.84
2023-02-26T12:33:34.539Z,94638.78
2023-02-26T12:36:16.932Z,94640.09
2023-02-26T12:39:34.760Z,94636.94
2023-02-26T12:42:01.696Z,94637.84
2023-02-26T12:45:04.974Z,94638.34
2023-02-26T12:48:05.470Z,94636.75
2023-02-26T12:50:42.904Z,94632.38
2023-02-26T12:53:36.753Z,94627.31
2023-02-26T12:56:24.021Z,94632.78
2023-02-26T12:59:01.287Z,94626.13
2023-02-26T13:01:34.944Z,94629.22
2023-02-26T13:04:24.016Z,94628.38
2023-02-26T13:07:12.262Z,94629.44
2023-02-26T13:10:24.571Z,94629.69
2023-02-26T13:13:00.518Z,94644.75
2023-02-26T13:15:55.561Z,94648.22
2023-02-26T13:18:28.566Z,94641.50
2023-02-26T13:21:07.795Z,94638.94
2023-02-26T13:23:50.169Z,94633.84
2023-02-26T13:26:18.901Z,94633.16
2023-02-26T13:28:50.266Z,94633.56
2023-02-26T13:31:21.636Z,94636.41
2023-02-26T13:33:50.746Z,94627.78
2023-02-26T13:36:19.694Z,94636.31
2023-02-26T13:38:55.313Z,94633.38
2023-02-26T13:41:28.241Z,94633.09
2023-02-26T13:44:24.822Z,94638.34
2023-02-26T13:47:05.339Z,94642.38
2023-02-26T13:49:51.110Z,94632.34
2023-02-26T13:52:30.454Z,94650.75
2023-02-26T13:54:59.272Z,94657.59
2023-02-26T13:57:36.696Z,94662.06
2023-02-26T14:00:25.231Z,94662.94
2023-02-26T14:02:57.483Z,94664.16
2023-02-26T14:05:34.668Z,94665.44
2023-02-26T14:08:01.137Z,94655.59
2023-02-26T14:10:36.244Z,94665.00
2023-02-26T14:13:08.823Z,94657.59
2023-02-26T14:16:01.252Z,94657.22
2023-02-26T14:18:27.990Z,94656.69
2023-02-26T14:21:27.574Z,94665.97
2023-02-26T14:24:03.247Z,94661.25
2023-02-26T14:26:35.628Z,94654.63
2023-02-26T14:29:05.016Z,94660.31
2023-02-26T14:31:50.631Z,94666.09
2023-02-26T14:34:31.713Z,94672.47
2023-02-26T14:37:02.065Z,94674.34
2023-02-26T14:39:31.449Z,94669.22
2023-02-26T14:42:06.424Z,94666.19
2023-02-26T14:44:44.301Z,94662.44
2023-02-26T14:47:12.810Z,94671.75
2023-02-26T14:49:46.305Z,94669.16
2023-02-26T14:52:37.491Z,94671.25
2023-02-26T14:55:26.046Z,94676.75
2023-02-26T14:58:26.448Z,94676.00
2023-02-26T15:01:20.859Z,94679.97
2023-02-26T15:03:51.154Z,94676.84
2023-02-26T15:06:23.648Z,94665.47
2023-02-26T15:09:04.723Z,94671.63
2023-02-26T15:11:52.527Z,94663.09
2023-02-26T15:14:44.814Z,94669.88
2023-02-26T15:17:33.735Z,94677.97
2023-02-26T15:20:03.220Z,94678.59
2023-02-26T15:22:51.258Z,94690.03
2023-02-26T15:25:27.238Z,94698.06
2023-02-26T15:27:54.265Z,94715.03
2023-02-26T15:30:22.695Z,94719.25
2023-02-26T15:32:49.572Z,94717.69
2023-02-26T15:35:19.844Z,94713.25
2023-02-26T15:37:55.110Z,94711.47
2023-02-26T15:40:22.068Z,94715.75
2023-02-26T15:42:55.246Z,94711.81
2023-02-26T15:45:25.944Z,94713.38
2023-02-26T15:48:02.753Z,94716.94
2023-02-26T15:50:33.737Z,94727.88
2023-02-26T15:53:03.064Z,94727.97
2023-02-26T15:55:35.506Z,94729.03
2023-02-26T15:58:03.899Z,94732.50
2023-02-26T16:00:35.703Z,94736.94
2023-02-26T16:03:02.193Z,94743.72
2023-02-26T16:05:29.573Z,94743.25
2023-02-26T16:07:56.852Z,94755.66
2023-02-26T16:10:33.199Z,94756.13
2023-02-26T16:13:02.009Z,94757.00
2023-02-26T16:15:34.753Z,94762.34
2023-02-26T16:18:05.363Z,94758.47
2023-02-26T16:20:44.604Z,94765.13
2023-02-26T16:23:18.310Z,94758.44
2023-02-26T16:25:50.477Z,94758.78
2023-02-26T16:28:22.013Z,94765.63
2023-02-26T16:30:54.311Z,94774.69
2023-02-26T16:33:24.320Z,94779.16
2023-02-26T16:36:03.463Z,94779.59
2023-02-26T16:38:56.611Z,94797.41
2023-02-26T16:41:26.002Z,94786.88
2023-02-26T16:43:57.847Z,94795.31
2023-02-26T16:46:34.134Z,94804.38
2023-02-26T16:49:06.356Z,94803.97
2023-02-26T16:51:37.543Z,94806.50
2023-02-26T16:54:17.479Z,94817.94
2023-02-26T16:56:47.823Z,94812.13
2023-02-26T16:59:23.316Z,94818.00
2023-02-26T17:01:53.291Z,94821.28
2023-02-26T17:04:23.615Z,94822.75
2023-02-26T17:06:52.066Z,94825.59
2023-02-26T17:09:52.822Z,94833.19
2023-02-26T17:12:28.538Z,94853.09
2023-02-26T17:14:57.370Z,94859.47
2023-02-26T17:17:25.428Z,94861.41
2023-02-26T17:19:53.064Z,94861.03
2023-02-26T17:22:28.880Z,94864.09
2023-02-26T17:24:55.631Z,94862.63
2023-02-26T17:27:29.017Z,94868.50
2023-02-26T17:29:57.868Z,94862.16
2023-02-26T17:32:27.699Z,94874.28
2023-02-26T17:34:54.853Z,94874.28
2023-02-26T17:37:23.008Z,94875.50
2023-02-26T17:39:49.717Z,94878.09
2023-02-26T17:42:23.017Z,94887.63
2023-02-26T17:44:50.515Z,94898.13
2023-02-26T17:47:21.135Z,94892.09
2023-02-26T17:49:48.427Z,94897.38
2023-02-26T17:52:16.105Z,94905.94
2023-02-26T17:54:43.558Z,94909.28
2023-02-26T17:57:17.025Z,94904.72
2023-02-26T17:59:43.955Z,94914.47
2023-02-26T18:02:22.027Z,94908.34
2023-02-26T18:04:49.314Z,94914.72
2023-02-26T18:07:17.584Z,94917.16
2023-02-26T18:09:45.573Z,94914.72
2023-02-26T18:12:14.591Z,94913.75
2023-02-26T18:14:45.006Z,94919.47
2023-02-26T18:17:14.653Z,94919.25
2023-02-26T18:19:42.678Z,94926.50
2023-02-26T18:22:17.306Z,94917.25
2023-02-26T18:24:43.843Z,94927.84
2023-02-26T18:27:17.658Z,94931.31
2023-02-26T18:29:44.611Z,94938.03
2023-02-26T18:32:16.227Z,94935.16
2023-02-26T18:34:42.973Z,94933.00
2023-02-26T18:37:16.123Z,94933.88
2023-02-26T18:39:43.030Z,94928.81
2023-02-26T18:42:23.082Z,94932.91
2023-02-26T18:44:50.635Z,94934.63
2023-02-26T18:47:19.042Z,94933.13
2023-02-26T18:49:46.224Z,94929.38
2023-02-26T18:52:13.442Z,94938.38
2023-02-26T18:54:40.822Z,94940.22
2023-02-26T18:57:08.497Z,94938.94
2023-02-26T18:59:36.029Z,94935.00
2023-02-26T19:02:04.644Z,94930.25
2023-02-26T19:04:31.475Z,94930.34
2023-02-26T19:06:58.350Z,94926.97
2023-02-26T19:09:27.193Z,94934.13
2023-02-26T19:11:53.735Z,94934.34
2023-02-26T19:14:20.633Z,94935.22
2023-02-26T19:16:47.309Z,94936.03
2023-02-26T19:19:14.185Z,94937.91
2023-02-26T19:21:41.137Z,94942.97
2023-02-26T19:24:10.477Z,94937.69
2023-02-26T19:26:37.926Z,94929.59
2023-02-26T19:29:06.742Z,94927.13
2023-02-26T19:31:36.568Z,94936.88
2023-02-26T19:34:04.131Z,94939.03
2023-02-26T19:36:34.830Z,94932.69
2023-02-26T19:39:02.897Z,94933.03
2023-02-26T19:41:29.644Z,94935.53
2023-02-26T19:43:57.013Z,94933.22
2023-02-26T19:46:23.663Z,94937.84
2023-02-26T19:48:50.819Z,94938.38
2023-02-26T19:51:18.611Z,94948.09
2023-02-26T19:53:45.706Z,94959.06
2023-02-26T19:56:13.056Z,94970.00
2023-02-26T19:58:40.029Z,94974.22
2023-02-26T20:01:07.285Z,94978.59
2023-02-26T20:03:34.036Z,94981.94
2023-02-26T20:06:01.484Z,94985.88
2023-02-26T20:08:29.765Z,94983.81
2023-02-26T20:10:58.734Z,94985.69
2023-02-26T20:13:30.204Z,95000.28
2023-02-26T20:16:00.988Z,94999.09
2023-02-26T20:18:30.827Z,95005.97
2023-02-26T20:21:02.354Z,95019.94
2023-02-26T20:23:29.427Z,95013.19
2023-02-26T20:25:59.312Z,95018.84
2023-02-26T20:28:25.867Z,95019.94
2023-02-26T20:30:52.609Z,95012.28
2023-02-26T20:33:21.095Z,95016.53
2023-02-26T20:35:48.092Z,95016.44
2023-02-26T20:38:16.810Z,95014.00
2023-02-26T20:40:44.461Z,95007.31
2023-02-26T20:43:14.817Z,95013.63
2023-02-26T20:45:41.849Z,95019.03
2023-02-26T20:48:09.123Z,95017.47
2023-02-26T20:50:36.295Z,95021.44
2023-02-26T20:53:04.898Z,95016.63
2023-02-26T20:55:32.022Z,95019.97
2023-02-26T20:57:58.790Z,95021.03
2023-02-26T21:00:25.524Z,95027.91
2023-02-26T21:02:52.494Z,95036.53
2023-02-26T21:05:20.124Z,95034.00
2023-02-26T21:07:47.197Z,95031.66
2023-02-26T21:10:16.319Z,95040.25
2023-02-26T21:12:43.149Z,95036.13
2023-02-26T21:15:11.857Z,95035.88
2023-02-26T21:17:39.930Z,95033.16
2023-02-26T21:20:08.742Z,95029.38
2023-02-26T21:22:36.433Z,95036.53
2023-02-26T21:25:06.476Z,95041.59
2023-02-26T21:27:34.254Z,95040.84
2023-02-26T21:30:00.838Z,95050.13
2023-02-26T21:32:27.894Z,95047.41
2023-02-26T21:34:55.778Z,95045.75
2023-02-26T21:37:22.434Z,95046.66
2023-02-26T21:39:49.104Z,95050.41
2023-02-26T21:42:15.834Z,95053.94
2023-02-26T21:44:42.825Z,95046.88
2023-02-26T21:47:11.084Z,95051.00
2023-02-26T21:49:38.156Z,95059.50
2023-02-26T21:52:06.721Z,95057.31
2023-02-26T21:54:33.669Z,95053.81
2023-02-26T21:57:00.461Z,95052.84
2023-02-26T21:59:27.198Z,95057.50
2023-02-26T22:01:54.155Z,95070.00
2023-02-26T22:04:21.792Z,95065.28
2023-02-26T22:06:48.855Z,95068.63
2023-02-26T22:09:15.563Z,95065.19
2023-02-26T22:11:42.261Z,95070.91
2023-02-26T22:14:08.896Z,95069.06
2023-02-26T22:16:35.505Z,95068.00
2023-02-26T22:19:02.469Z,95063.06
2023-02-26T22:21:29.636Z,95061.97
2023-02-26T22:23:56.284Z,95066.06
2023-02-26T22:26:23.326Z,95065.56
2023-02-26T22:28:49.864Z,95062.59
2023-02-26T22:31:16.884Z,95065.31
2023-02-26T22:33:43.529Z,95065.59
2023-02-26T22:36:10.277Z,95066.25
2023-02-26T22:38:36.933Z,95062.03
2023-02-26T22:41:03.706Z,95063.06
2023-02-26T22:43:30.622Z,95059.72
2023-02-26T22:45:57.208Z,95055.22
2023-02-26T22:48:24.186Z,95062.63
2023-02-26T22:50:50.889Z,95064.88
2023-02-26T22:53:17.552Z,95066.31
2023-02-26T22:55:44.414Z,95067.41
2023-02-26T22:58:10.964Z,95077.50
2023-02-26T23:00:37.624Z,95076.84
2023-02-26T23:03:04.500Z,95070.97
2023-02-26T23:05:31.287Z,95070.84
2023-02-26T23:07:57.922Z,95075.22
2023-02-26T23:10:24.588Z,95075.63
2023-02-26T23:12:51.378Z,95082.44
2023-02-26T23:15:18.178Z,95080.94
2023-02-26T23:17:44.825Z,95090.06
2023-02-26T23:20:14.053Z,95090.97
2023-02-26T23:22:43.622Z,95080.63
2023-02-26T23:25:12.096Z,95081.91
2023-02-26T23:27:39.710Z,95085.47
2023-02-26T23:30:08.247Z,95085.31
2023-02-26T23:32:35.104Z,95085.38
2023-02-26T23:35:01.743Z,95087.66
2023-02-26T23:37:28.480Z,95089.56
2023-02-26T23:39:55.412Z,95089.50
2023-02-26T23:42:22.033Z,95094.06
2023-02-26T23:44:49.881Z,95103.28
2023-02-26T23:47:16.587Z,95095.66
2023-02-26T23:49:43.375Z,95094.75
2023-02-26T23:52:10.032Z,95099.03
2023-02-26T23:54:39.673Z,95092.97
2023-02-26T23:57:06.816Z,95089.56
2023-02-26T23:59:33.985Z,95087.03
